Time;durP1;ratioP1;P1;durP2;ratioP2;P2;SDS_P1;SDS_P2;PMS_P1;PMS_P2;Temp;Humidity;BMP_temperature;BMP_pressure;BME280_temperature;BME280_humidity;BME280_pressure;Samples;Min_cycle;Max_cycle;Signal;HPM_P1;HPM_P2
2021/10/13 00:00:08;;;;;;;0.05;0.05;;;7.50;99.90;;;;;;6267236;22;20318;-80
2021/10/13 00:02:35;;;;;;;0.10;0.10;;;7.50;99.90;;;;;;6292145;22;20015;-80
2021/10/13 00:05:04;;;;;;;0.10;0.10;;;7.50;99.90;;;;;;6292243;22;20378;-80
2021/10/13 00:07:31;;;;;;;0.10;0.10;;;7.50;99.90;;;;;;6266673;22;20051;-80
2021/10/13 00:09:58;;;;;;;0.10;0.10;;;7.50;99.90;;;;;;6291848;22;20016;-80
2021/10/13 00:12:25;;;;;;;0.10;0.10;;;7.50;99.90;;;;;;6266592;22;20012;-80
2021/10/13 00:14:53;;;;;;;0.10;0.10;;;7.70;99.90;;;;;;6266619;22;20035;-80
2021/10/13 00:17:20;;;;;;;0.08;0.08;;;7.70;99.90;;;;;;6266591;22;20015;-80
2021/10/13 00:19:46;;;;;;;0.10;0.10;;;7.80;99.90;;;;;;6266780;22;20493;-80
2021/10/13 00:22:13;;;;;;;0.10;0.10;;;7.80;99.90;;;;;;6266387;22;20016;-80
2021/10/13 00:24:40;;;;;;;0.00;0.00;;;7.80;99.90;;;;;;6266676;22;20016;-79
2021/10/13 00:27:06;;;;;;;0.10;0.10;;;7.90;99.90;;;;;;6267080;22;20559;-80
2021/10/13 00:29:36;;;;;;;0.10;0.10;;;8.00;99.90;;;;;;6266609;22;20050;-80
2021/10/13 00:32:04;;;;;;;0.10;0.10;;;8.00;99.90;;;;;;6292696;22;20008;-80
2021/10/13 00:34:32;;;;;;;0.10;0.10;;;8.10;99.90;;;;;;6266782;22;20504;-80
2021/10/13 00:36:59;;;;;;;0.10;0.10;;;8.10;99.90;;;;;;6291866;22;20012;-80
2021/10/13 00:39:26;;;;;;;0.10;0.10;;;8.10;99.90;;;;;;6266443;22;20077;-80
2021/10/13 00:41:52;;;;;;;0.10;0.10;;;8.20;99.90;;;;;;6266690;22;20336;-80
2021/10/13 00:44:19;;;;;;;0.10;0.10;;;8.20;99.90;;;;;;6266425;22;20118;-80
2021/10/13 00:46:46;;;;;;;0.00;0.00;;;8.20;99.90;;;;;;6266795;22;20690;-80
2021/10/13 00:49:13;;;;;;;0.00;0.00;;;8.20;99.90;;;;;;6266702;22;20428;-80
2021/10/13 00:51:40;;;;;;;0.52;0.28;;;8.20;99.90;;;;;;6267002;22;20012;-80
2021/10/13 00:54:09;;;;;;;0.00;0.00;;;8.20;99.90;;;;;;6266591;22;20011;-80
2021/10/13 00:56:35;;;;;;;0.10;0.10;;;8.10;99.90;;;;;;6291639;22;20372;-80
2021/10/13 00:59:02;;;;;;;0.10;0.10;;;8.10;99.90;;;;;;6266731;22;20015;-80
2021/10/13 01:01:40;;;;;;;0.10;0.10;;;8.10;99.90;;;;;;6266218;22;20019;-80
2021/10/13 01:04:20;;;;;;;0.10;0.10;;;8.10;99.90;;;;;;6292012;22;20099;-80
2021/10/13 01:07:11;;;;;;;0.08;0.08;;;8.10;99.90;;;;;;6292809;22;20016;-80
2021/10/13 01:10:09;;;;;;;0.10;0.10;;;8.10;99.90;;;;;;6319283;22;20026;-80
2021/10/13 01:13:10;;;;;;;0.00;0.00;;;8.10;99.90;;;;;;6282335;22;20022;-80
2021/10/13 01:16:03;;;;;;;0.10;0.10;;;8.10;99.90;;;;;;6293481;22;20022;-80
2021/10/13 01:18:49;;;;;;;0.03;0.03;;;8.10;99.90;;;;;;6282880;22;20486;-80
2021/10/13 01:21:46;;;;;;;0.10;0.10;;;8.10;99.90;;;;;;6319216;22;20012;-80
2021/10/13 01:24:28;;;;;;;0.10;0.10;;;8.00;99.90;;;;;;6293671;22;20012;-80
2021/10/13 01:27:29;;;;;;;0.10;0.10;;;8.00;99.90;;;;;;6293779;22;20008;-80
2021/10/13 01:29:57;;;;;;;0.03;0.03;;;8.00;99.90;;;;;;6319283;22;20012;-80
2021/10/13 01:32:30;;;;;;;0.05;0.05;;;8.00;99.90;;;;;;6293454;22;20314;-80
2021/10/13 01:35:00;;;;;;;0.10;0.10;;;8.00;99.90;;;;;;6293683;22;20015;-80
2021/10/13 01:37:45;;;;;;;0.10;0.10;;;8.10;99.90;;;;;;6293247;22;20008;-80
2021/10/13 01:40:15;;;;;;;0.10;0.10;;;8.10;99.90;;;;;;6293554;22;20091;-80
2021/10/13 01:42:47;;;;;;;0.10;0.10;;;8.10;99.90;;;;;;6292937;22;20012;-80
2021/10/13 01:45:16;;;;;;;0.10;0.10;;;8.10;99.90;;;;;;6293840;22;20386;-80
2021/10/13 01:47:46;;;;;;;0.08;0.08;;;8.10;99.90;;;;;;6293373;22;20019;-80
2021/10/13 01:50:14;;;;;;;0.10;0.10;;;8.20;99.90;;;;;;6293483;22;20049;-80
2021/10/13 01:52:42;;;;;;;0.10;0.10;;;8.20;99.90;;;;;;6293094;22;20016;-80
2021/10/13 01:55:11;;;;;;;0.00;0.00;;;8.20;99.90;;;;;;6268057;22;20043;-80
2021/10/13 01:57:39;;;;;;;0.05;0.05;;;8.20;99.90;;;;;;6267664;22;20007;-80
2021/10/13 02:00:07;;;;;;;0.10;0.10;;;8.10;99.90;;;;;;6318965;22;20046;-80
2021/10/13 02:02:37;;;;;;;0.10;0.10;;;8.20;99.90;;;;;;6292940;22;20016;-80
2021/10/13 02:05:05;;;;;;;0.10;0.10;;;8.10;99.90;;;;;;6268141;22;20019;-80
2021/10/13 02:07:33;;;;;;;0.10;0.10;;;8.20;99.90;;;;;;6293009;22;20019;-80
2021/10/13 02:10:06;;;;;;;0.10;0.10;;;8.10;99.90;;;;;;6293432;22;20027;-79
2021/10/13 02:12:35;;;;;;;0.10;0.10;;;8.10;99.90;;;;;;6292810;22;20012;-80
2021/10/13 02:15:04;;;;;;;0.00;0.00;;;8.10;99.90;;;;;;6292848;22;20019;-80
2021/10/13 02:17:36;;;;;;;0.00;0.00;;;8.10;99.90;;;;;;6292641;22;20447;-80
2021/10/13 02:20:04;;;;;;;0.00;0.00;;;8.10;99.90;;;;;;6293165;22;20066;-80
2021/10/13 02:22:32;;;;;;;0.10;0.10;;;8.10;99.90;;;;;;6267778;22;20390;-80
2021/10/13 02:24:59;;;;;;;0.10;0.10;;;8.00;99.90;;;;;;6268060;22;20083;-80
2021/10/13 02:27:33;;;;;;;0.00;0.00;;;8.10;99.90;;;;;;6267876;22;20101;-80
2021/10/13 02:30:01;;;;;;;0.08;0.08;;;8.00;99.90;;;;;;6293120;22;20041;-80
2021/10/13 02:32:27;;;;;;;0.10;0.10;;;8.20;99.90;;;;;;6267754;22;20462;-80
2021/10/13 02:34:56;;;;;;;0.10;0.10;;;8.00;99.90;;;;;;6292987;22;20011;-80
2021/10/13 02:37:23;;;;;;;0.00;0.00;;;8.00;99.90;;;;;;6268404;22;20011;-80
2021/10/13 02:39:50;;;;;;;0.10;0.10;;;8.00;99.90;;;;;;6267566;22;20444;-80
2021/10/13 02:42:17;;;;;;;0.00;0.00;;;8.00;99.90;;;;;;6293120;22;20444;-80
2021/10/13 02:44:44;;;;;;;0.10;0.10;;;8.00;99.90;;;;;;6267377;22;20022;-80
2021/10/13 02:47:17;;;;;;;0.10;0.10;;;8.00;99.90;;;;;;6267826;22;20463;-80
2021/10/13 02:50:01;;;;;;;0.10;0.10;;;8.00;99.90;;;;;;6292282;22;20150;-80
2021/10/13 02:52:32;;;;;;;0.03;0.03;;;8.00;99.90;;;;;;6292477;22;20086;-81
2021/10/13 02:55:07;;;;;;;0.00;0.00;;;8.00;99.90;;;;;;6318642;22;20041;-80
2021/10/13 02:57:40;;;;;;;0.10;0.10;;;8.00;99.90;;;;;;6292545;22;20527;-80
2021/10/13 03:00:08;;;;;;;0.10;0.10;;;7.90;99.90;;;;;;6292752;22;20073;-80
2021/10/13 03:02:49;;;;;;;0.20;0.20;;;8.00;99.90;;;;;;6292432;22;20444;-80
2021/10/13 03:05:20;;;;;;;0.10;0.10;;;8.00;99.90;;;;;;6292928;22;20011;-80
2021/10/13 03:07:48;;;;;;;0.10;0.10;;;8.10;99.90;;;;;;6292271;22;20099;-80
2021/10/13 03:10:15;;;;;;;0.00;0.00;;;8.10;99.90;;;;;;6267456;22;20507;-80
2021/10/13 03:12:50;;;;;;;0.10;0.10;;;8.10;99.90;;;;;;6266970;22;20130;-80
2021/10/13 03:15:18;;;;;;;0.10;0.10;;;8.20;99.90;;;;;;6292380;22;20443;-80
2021/10/13 03:17:51;;;;;;;0.10;0.10;;;8.20;99.90;;;;;;6267281;22;20012;-80
2021/10/13 03:20:18;;;;;;;0.00;0.00;;;8.10;99.90;;;;;;6292660;22;20019;-80
2021/10/13 03:22:46;;;;;;;0.10;0.10;;;8.10;99.90;;;;;;6317961;22;20318;-80
2021/10/13 03:25:12;;;;;;;0.10;0.10;;;8.10;99.90;;;;;;6267124;22;20012;-80
2021/10/13 03:27:39;;;;;;;0.10;0.10;;;8.10;99.90;;;;;;6267223;22;20138;-80
2021/10/13 03:30:06;;;;;;;0.10;0.10;;;8.00;99.90;;;;;;6266890;22;20051;-80
2021/10/13 03:32:33;;;;;;;0.08;0.08;;;8.00;99.90;;;;;;6267031;22;20031;-81
2021/10/13 03:34:59;;;;;;;0.08;0.08;;;7.90;99.90;;;;;;6267345;22;20016;-80
2021/10/13 03:37:26;;;;;;;0.10;0.10;;;7.90;99.90;;;;;;6267309;22;20126;-80
2021/10/13 03:39:54;;;;;;;0.10;0.10;;;7.90;99.90;;;;;;6292138;22;20015;-80
2021/10/13 03:42:20;;;;;;;0.00;0.00;;;7.80;99.90;;;;;;6267574;22;20463;-80
2021/10/13 03:44:47;;;;;;;0.10;0.10;;;7.80;99.90;;;;;;6292411;22;20012;-80
2021/10/13 03:47:14;;;;;;;0.10;0.10;;;7.80;99.90;;;;;;6266987;22;20011;-80
2021/10/13 03:49:40;;;;;;;0.10;0.10;;;7.80;99.90;;;;;;6266741;22;20022;-80
2021/10/13 03:52:07;;;;;;;0.10;0.10;;;7.80;99.90;;;;;;6267255;22;20007;-80
2021/10/13 03:54:34;;;;;;;0.08;0.08;;;7.90;99.90;;;;;;6267089;22;20336;-80
2021/10/13 03:57:00;;;;;;;0.05;0.05;;;7.70;99.90;;;;;;6266792;22;20427;-80
2021/10/13 03:59:27;;;;;;;0.10;0.10;;;7.70;99.90;;;;;;6292003;22;20125;-80
2021/10/13 04:01:54;;;;;;;0.10;0.10;;;7.60;99.90;;;;;;6267126;22;20348;-80
2021/10/13 04:04:20;;;;;;;0.00;0.00;;;7.60;99.90;;;;;;6292351;22;20745;-80
2021/10/13 04:06:47;;;;;;;0.10;0.10;;;7.60;99.90;;;;;;6266683;22;20015;-80
2021/10/13 04:09:14;;;;;;;0.10;0.10;;;7.60;99.90;;;;;;6266539;22;20090;-80
2021/10/13 04:11:41;;;;;;;0.10;0.10;;;7.60;99.90;;;;;;6266708;22;20015;-80
2021/10/13 04:14:07;;;;;;;0.00;0.00;;;7.60;99.90;;;;;;6266690;22;20012;-80
2021/10/13 04:16:34;;;;;;;0.10;0.10;;;7.60;99.90;;;;;;6267030;22;20011;-80
2021/10/13 04:19:01;;;;;;;0.10;0.10;;;7.60;99.90;;;;;;6265980;22;20474;-80
2021/10/13 04:21:27;;;;;;;0.10;0.10;;;7.60;99.90;;;;;;6266360;22;20019;-80
2021/10/13 04:23:54;;;;;;;0.10;0.10;;;7.60;99.90;;;;;;6291224;22;20102;-80
2021/10/13 04:26:21;;;;;;;0.10;0.10;;;7.60;99.90;;;;;;6266573;22;20022;-80
2021/10/13 04:28:48;;;;;;;0.10;0.10;;;7.60;99.90;;;;;;6266274;22;20012;-80
2021/10/13 04:31:15;;;;;;;0.10;0.10;;;7.50;99.90;;;;;;6266616;22;20008;-80
2021/10/13 04:33:41;;;;;;;0.10;0.10;;;7.50;99.90;;;;;;6266001;22;20051;-80
2021/10/13 04:36:09;;;;;;;0.10;0.10;;;7.50;99.90;;;;;;6291799;22;20019;-80
2021/10/13 04:38:36;;;;;;;0.00;0.00;;;7.60;99.90;;;;;;6266464;22;20008;-80
2021/10/13 04:41:02;;;;;;;0.10;0.10;;;7.50;99.90;;;;;;6266599;22;20133;-80
2021/10/13 04:43:29;;;;;;;0.05;0.05;;;7.50;99.90;;;;;;6319822;22;20008;-80
2021/10/13 04:45:56;;;;;;;0.00;0.00;;;7.50;99.90;;;;;;6293886;22;20012;-80
2021/10/13 04:48:23;;;;;;;0.10;0.10;;;7.60;99.90;;;;;;6268970;22;20069;-80
2021/10/13 04:50:49;;;;;;;0.10;0.10;;;7.60;99.90;;;;;;6268532;22;20019;-80
2021/10/13 04:53:16;;;;;;;0.10;0.10;;;7.60;99.90;;;;;;6294359;22;20045;-80
2021/10/13 04:55:43;;;;;;;0.10;0.10;;;7.70;99.90;;;;;;6268605;22;20095;-80
2021/10/13 04:58:09;;;;;;;0.10;0.10;;;7.70;99.90;;;;;;6269929;22;20012;-80
2021/10/13 05:00:36;;;;;;;0.00;0.00;;;7.60;99.90;;;;;;6272219;22;20015;-80
2021/10/13 05:03:03;;;;;;;0.10;0.10;;;7.70;99.90;;;;;;6268421;22;20069;-80
2021/10/13 05:05:30;;;;;;;0.10;0.10;;;7.70;99.90;;;;;;6268772;22;20098;-80
2021/10/13 05:07:57;;;;;;;0.05;0.05;;;7.80;99.90;;;;;;6268225;22;20015;-80
2021/10/13 05:10:23;;;;;;;0.10;0.10;;;7.70;99.90;;;;;;6268186;22;20012;-80
2021/10/13 05:12:50;;;;;;;0.10;0.10;;;7.70;99.90;;;;;;6268221;22;20008;-80
2021/10/13 05:15:17;;;;;;;0.10;0.10;;;7.80;99.90;;;;;;6268376;22;20027;-80
2021/10/13 05:17:44;;;;;;;0.10;0.10;;;7.70;99.90;;;;;;6268501;22;20016;-80
2021/10/13 05:20:11;;;;;;;0.10;0.10;;;7.80;99.90;;;;;;6268637;22;20012;-80
2021/10/13 05:22:37;;;;;;;0.10;0.10;;;7.80;99.90;;;;;;6294100;22;20039;-80
2021/10/13 05:25:05;;;;;;;0.10;0.10;;;7.80;99.90;;;;;;6268277;22;20020;-80
2021/10/13 05:27:32;;;;;;;0.10;0.10;;;7.90;99.90;;;;;;6293572;22;20085;-80
2021/10/13 05:29:59;;;;;;;0.10;0.10;;;7.90;99.90;;;;;;6293738;22;20016;-80
2021/10/13 05:32:25;;;;;;;0.10;0.10;;;7.80;99.90;;;;;;6293971;22;20043;-80
2021/10/13 05:34:52;;;;;;;0.10;0.10;;;7.90;99.90;;;;;;6293448;22;20011;-80
2021/10/13 05:37:19;;;;;;;0.10;0.10;;;8.00;99.90;;;;;;6267924;22;20011;-80
2021/10/13 05:39:45;;;;;;;0.10;0.10;;;8.00;99.90;;;;;;6293232;22;20019;-80
2021/10/13 05:42:12;;;;;;;0.10;0.10;;;8.00;99.90;;;;;;6292428;22;20111;-80
2021/10/13 05:44:39;;;;;;;0.10;0.10;;;8.00;99.90;;;;;;6293233;22;20046;-80
2021/10/13 05:47:05;;;;;;;0.10;0.10;;;8.10;99.90;;;;;;6267491;22;20016;-80
2021/10/13 05:49:32;;;;;;;0.00;0.00;;;8.10;99.90;;;;;;6292787;22;20016;-80
2021/10/13 05:51:59;;;;;;;0.10;0.10;;;8.10;99.90;;;;;;6292225;22;20012;-80
2021/10/13 05:54:26;;;;;;;0.10;0.10;;;8.20;99.90;;;;;;6267357;22;20015;-80
2021/10/13 05:56:52;;;;;;;0.00;0.00;;;8.20;99.90;;;;;;6266846;22;20051;-80
2021/10/13 05:59:19;;;;;;;0.10;0.10;;;8.30;99.90;;;;;;6267772;22;20012;-80
2021/10/13 06:01:46;;;;;;;0.10;0.10;;;8.30;99.90;;;;;;6268092;22;20050;-80
2021/10/13 06:04:12;;;;;;;0.10;0.10;;;8.40;99.90;;;;;;6267426;22;20012;-80
2021/10/13 06:06:39;;;;;;;0.08;0.08;;;8.30;99.90;;;;;;6267628;22;20463;-80
2021/10/13 06:09:06;;;;;;;0.10;0.10;;;8.40;99.90;;;;;;6267546;22;20020;-80
2021/10/13 06:11:33;;;;;;;0.10;0.10;;;8.50;99.90;;;;;;6267543;22;20019;-80
2021/10/13 06:14:00;;;;;;;0.00;0.00;;;8.50;99.90;;;;;;6292480;22;20448;-81
2021/10/13 06:16:27;;;;;;;0.05;0.05;;;8.60;99.90;;;;;;6292976;22;20012;-80
2021/10/13 06:18:54;;;;;;;0.10;0.10;;;8.60;99.90;;;;;;6267040;22;20023;-80
2021/10/13 06:21:21;;;;;;;0.10;0.10;;;8.60;99.90;;;;;;6292598;22;20015;-80
2021/10/13 06:23:49;;;;;;;0.10;0.10;;;8.60;99.90;;;;;;6292722;22;20714;-80
2021/10/13 06:26:15;;;;;;;0.08;0.08;;;8.60;99.90;;;;;;6292440;22;20011;-80
2021/10/13 06:28:42;;;;;;;0.10;0.10;;;8.50;99.90;;;;;;6267658;22;20106;-80
2021/10/13 06:31:09;;;;;;;0.10;0.10;;;8.50;99.90;;;;;;6267354;22;20043;-79
2021/10/13 06:33:36;;;;;;;0.10;0.10;;;8.50;99.90;;;;;;6267535;22;20447;-79
2021/10/13 06:36:07;;;;;;;0.00;0.00;;;8.50;99.90;;;;;;6267561;22;20090;-80
2021/10/13 06:38:34;;;;;;;0.00;0.00;;;8.50;99.90;;;;;;6292963;22;20007;-79
2021/10/13 06:41:02;;;;;;;0.17;0.17;;;8.50;99.90;;;;;;6292617;22;20016;-80
2021/10/13 06:43:29;;;;;;;0.10;0.10;;;8.50;99.90;;;;;;6292965;22;20007;-81
2021/10/13 06:45:56;;;;;;;0.10;0.10;;;8.50;99.90;;;;;;6267122;22;20011;-81
2021/10/13 06:48:23;;;;;;;0.10;0.10;;;8.90;99.90;;;;;;6267669;22;20015;-81
2021/10/13 06:50:50;;;;;;;0.00;0.00;;;8.50;99.90;;;;;;6267493;22;20015;-82
2021/10/13 06:53:17;;;;;;;0.10;0.10;;;8.50;99.90;;;;;;6292747;22;20011;-81
2021/10/13 06:55:45;;;;;;;0.03;0.03;;;8.60;99.90;;;;;;6267741;22;20336;-80
2021/10/13 06:58:13;;;;;;;0.00;0.00;;;8.50;99.90;;;;;;6267183;22;20008;-81
2021/10/13 07:00:40;;;;;;;0.05;0.05;;;8.50;99.90;;;;;;6292606;22;20042;-80
2021/10/13 07:03:07;;;;;;;0.10;0.10;;;8.50;99.90;;;;;;6292094;22;20145;-80
2021/10/13 07:05:35;;;;;;;0.10;0.10;;;8.50;99.90;;;;;;6266983;22;20022;-80
2021/10/13 07:08:03;;;;;;;0.10;0.10;;;8.40;99.90;;;;;;6292138;22;20506;-81
2021/10/13 07:10:29;;;;;;;0.00;0.00;;;8.50;99.90;;;;;;6267319;22;20024;-80
2021/10/13 07:12:56;;;;;;;0.00;0.00;;;8.50;99.90;;;;;;6266952;22;20016;-80
2021/10/13 07:15:23;;;;;;;0.05;0.05;;;8.50;99.90;;;;;;6266482;22;20022;-79
2021/10/13 07:17:50;;;;;;;0.00;0.00;;;8.50;99.90;;;;;;6292434;22;20016;-80
2021/10/13 07:20:17;;;;;;;0.10;0.10;;;8.50;99.90;;;;;;6266528;22;20016;-80
2021/10/13 07:22:44;;;;;;;0.10;0.10;;;8.50;99.90;;;;;;6291962;22;20011;-80
2021/10/13 07:25:10;;;;;;;0.00;0.00;;;8.50;99.90;;;;;;6266751;22;20019;-80
2021/10/13 07:27:38;;;;;;;0.00;0.00;;;8.60;99.90;;;;;;6266144;22;20016;-80
2021/10/13 07:30:07;;;;;;;0.10;0.10;;;8.60;99.90;;;;;;6267410;22;20020;-80
2021/10/13 07:32:34;;;;;;;0.00;0.00;;;8.70;99.90;;;;;;6292258;22;20058;-81
2021/10/13 07:35:01;;;;;;;0.10;0.10;;;8.80;99.90;;;;;;6265585;22;20528;-80
2021/10/13 07:37:28;;;;;;;0.00;0.00;;;8.80;99.90;;;;;;6266484;22;20043;-80
2021/10/13 07:39:55;;;;;;;0.10;0.10;;;8.80;99.90;;;;;;6292217;22;20018;-80
2021/10/13 07:42:23;;;;;;;0.00;0.00;;;8.90;99.90;;;;;;6291763;22;20015;-80
2021/10/13 07:44:50;;;;;;;0.03;0.03;;;8.90;99.90;;;;;;6292470;22;20011;-82
2021/10/13 07:47:16;;;;;;;0.10;0.10;;;8.90;99.90;;;;;;6266332;22;20387;-81
2021/10/13 07:49:43;;;;;;;0.08;0.08;;;8.90;99.90;;;;;;6266786;22;20018;-87
2021/10/13 07:52:10;;;;;;;0.10;0.10;;;8.90;99.90;;;;;;6266723;22;20012;-81
2021/10/13 07:54:36;;;;;;;0.03;0.03;;;8.90;99.90;;;;;;6292101;22;20016;-83
2021/10/13 07:57:03;;;;;;;0.10;0.10;;;8.90;99.90;;;;;;6266385;22;20321;-81
2021/10/13 07:59:30;;;;;;;0.10;0.10;;;9.00;99.90;;;;;;6292186;22;20015;-80
2021/10/13 08:02:03;;;;;;;0.05;0.05;;;9.00;99.90;;;;;;6292416;22;20436;-87
2021/10/13 08:04:31;;;;;;;0.00;0.00;;;9.10;99.90;;;;;;6292385;22;20022;-84
2021/10/13 08:06:57;;;;;;;0.00;0.00;;;9.20;99.90;;;;;;6292768;22;20011;-84
2021/10/13 08:09:24;;;;;;;0.00;0.00;;;9.30;99.90;;;;;;6266906;22;20081;-80
2021/10/13 08:11:53;;;;;;;0.05;0.05;;;9.40;99.90;;;;;;6292647;22;20020;-81
2021/10/13 08:14:19;;;;;;;0.10;0.10;;;9.50;99.90;;;;;;6266505;22;20077;-81
2021/10/13 08:16:46;;;;;;;0.10;0.10;;;9.60;99.90;;;;;;6317516;22;20019;-80
2021/10/13 08:19:13;;;;;;;0.10;0.10;;;9.70;99.90;;;;;;6291599;22;20019;-82
2021/10/13 08:21:39;;;;;;;0.08;0.08;;;9.80;99.90;;;;;;6266909;22;20015;-82
2021/10/13 08:24:06;;;;;;;0.10;0.10;;;9.80;99.90;;;;;;6266307;22;20105;-81
2021/10/13 08:26:33;;;;;;;0.10;0.10;;;9.90;99.90;;;;;;6241258;22;20440;-83
2021/10/13 08:29:00;;;;;;;0.00;0.00;;;10.00;99.90;;;;;;6291840;22;20023;-82
2021/10/13 08:31:27;;;;;;;0.00;0.00;;;10.10;99.90;;;;;;6266521;22;20015;-81
2021/10/13 08:33:53;;;;;;;0.10;0.10;;;10.20;99.90;;;;;;6266514;22;20030;-81
2021/10/13 08:36:20;;;;;;;0.10;0.10;;;10.40;99.90;;;;;;6266237;22;20029;-81
2021/10/13 08:38:48;;;;;;;0.00;0.00;;;10.50;99.90;;;;;;6267065;22;20008;-80
2021/10/13 08:41:14;;;;;;;0.17;0.15;;;10.60;99.90;;;;;;6266560;22;20039;-79
2021/10/13 08:43:44;;;;;;;0.00;0.00;;;10.70;99.90;;;;;;6292213;22;20020;-81
2021/10/13 08:46:12;;;;;;;0.10;0.10;;;10.80;99.90;;;;;;6266465;22;20020;-81
2021/10/13 08:48:39;;;;;;;0.03;0.03;;;10.90;99.90;;;;;;6317343;22;20008;-80
2021/10/13 08:51:07;;;;;;;0.00;0.00;;;10.90;99.90;;;;;;6266860;22;20008;-81
2021/10/13 08:53:33;;;;;;;0.00;0.00;;;11.00;99.90;;;;;;6316855;22;20012;-83
2021/10/13 08:56:00;;;;;;;0.00;0.00;;;11.10;99.90;;;;;;6266442;22;20407;-79
2021/10/13 08:58:29;;;;;;;0.00;0.00;;;11.20;99.90;;;;;;6266127;22;20007;-79
2021/10/13 09:01:07;;;;;;;0.00;0.00;;;11.20;99.90;;;;;;6267100;22;20317;-80
2021/10/13 09:03:45;;;;;;;0.00;0.00;;;11.20;99.90;;;;;;6291562;22;20039;-79
2021/10/13 09:06:29;;;;;;;0.00;0.00;;;11.20;99.90;;;;;;6291749;22;20011;-80
2021/10/13 09:09:08;;;;;;;0.00;0.00;;;11.20;99.90;;;;;;6317130;22;20015;-80
2021/10/13 09:11:48;;;;;;;0.00;0.00;;;11.10;99.90;;;;;;6317121;22;20018;-80
2021/10/13 09:14:20;;;;;;;0.00;0.00;;;11.10;99.90;;;;;;6291294;22;20091;-80
2021/10/13 09:16:56;;;;;;;0.00;0.00;;;11.20;99.90;;;;;;6292021;22;20011;-84
2021/10/13 09:19:25;;;;;;;0.00;0.00;;;11.20;99.90;;;;;;6292058;22;20022;-86
2021/10/13 09:22:01;;;;;;;0.00;0.00;;;11.30;99.90;;;;;;6292408;22;20019;-81
2021/10/13 09:24:30;;;;;;;0.00;0.00;;;11.40;99.90;;;;;;6291634;22;20035;-81
2021/10/13 09:27:16;;;;;;;0.00;0.00;;;11.60;99.90;;;;;;6292398;22;20011;-81
2021/10/13 09:29:43;;;;;;;0.00;0.00;;;11.70;99.90;;;;;;6293774;22;20016;-80
2021/10/13 09:32:10;;;;;;;0.00;0.00;;;11.80;99.90;;;;;;6268356;22;20004;-80
2021/10/13 09:34:45;;;;;;;0.00;0.00;;;11.80;99.90;;;;;;6293225;22;20018;-81
2021/10/13 09:37:12;;;;;;;0.10;0.10;;;11.80;99.90;;;;;;6268693;22;20047;-82
2021/10/13 09:39:39;;;;;;;0.00;0.00;;;11.80;99.90;;;;;;6293306;22;20012;-82
2021/10/13 09:42:08;;;;;;;0.00;0.00;;;11.80;99.90;;;;;;6268378;22;20378;-82
2021/10/13 09:44:55;;;;;;;0.10;0.10;;;11.90;99.90;;;;;;6292818;22;20015;-81
2021/10/13 09:47:30;;;;;;;0.00;0.00;;;11.90;99.90;;;;;;6293167;22;20015;-81
2021/10/13 09:49:57;;;;;;;0.05;0.05;;;12.00;99.90;;;;;;6293982;22;20047;-87
2021/10/13 09:52:29;;;;;;;0.00;0.00;;;12.00;99.90;;;;;;6267725;22;20065;-84
2021/10/13 09:55:07;;;;;;;0.05;0.05;;;12.20;99.90;;;;;;6292684;22;20069;-88
2021/10/13 09:57:44;;;;;;;0.00;0.00;;;12.30;99.90;;;;;;6292849;22;20018;-83
2021/10/13 10:00:12;;;;;;;0.00;0.00;;;12.30;99.90;;;;;;6293386;22;20023;-83
2021/10/13 10:02:44;;;;;;;0.00;0.00;;;12.40;99.90;;;;;;6317280;22;20019;-83
2021/10/13 10:05:41;;;;;;;0.00;0.00;;;12.60;99.90;;;;;;6293235;22;20057;-83
2021/10/13 10:08:10;;;;;;;;;;;12.70;99.90;;;;;;6290119;22;20023;-83
2021/10/13 10:10:58;;;;;;;0.00;0.00;;;12.70;99.90;;;;;;6318159;22;19919;-81
2021/10/13 10:13:36;;;;;;;0.00;0.00;;;12.90;99.90;;;;;;6292532;22;20039;-80
2021/10/13 10:16:03;;;;;;;0.00;0.00;;;13.10;99.90;;;;;;6293329;22;20020;-81
2021/10/13 10:18:35;;;;;;;0.00;0.00;;;13.10;99.90;;;;;;6292630;22;20011;-81
2021/10/13 10:21:26;;;;;;;0.00;0.00;;;13.00;99.90;;;;;;6293285;22;20022;-82
2021/10/13 10:23:58;;;;;;;0.00;0.00;;;13.00;99.90;;;;;;6292784;22;20011;-79
2021/10/13 10:26:25;;;;;;;0.00;0.00;;;12.90;99.90;;;;;;6318364;22;20051;-80
2021/10/13 10:29:10;;;;;;;0.00;0.00;;;12.40;99.90;;;;;;6293063;22;20340;-80
2021/10/13 10:31:39;;;;;;;0.00;0.00;;;12.10;99.90;;;;;;6292991;22;20409;-80
2021/10/13 10:34:07;;;;;;;0.00;0.00;;;11.90;99.90;;;;;;6318444;22;20037;-80
2021/10/13 10:36:34;;;;;;;0.00;0.00;;;11.60;99.90;;;;;;6318375;22;20019;-79
2021/10/13 10:39:11;;;;;;;0.00;0.00;;;11.50;99.90;;;;;;6292548;22;20344;-79
2021/10/13 10:41:43;;;;;;;0.00;0.00;;;11.40;99.90;;;;;;6293078;22;20444;-80
2021/10/13 10:44:37;;;;;;;0.08;0.08;;;11.40;99.90;;;;;;6293156;22;20015;-79
2021/10/13 10:47:07;;;;;;;0.00;0.00;;;11.40;99.90;;;;;;6293065;22;20074;-80
2021/10/13 10:49:43;;;;;;;0.00;0.00;;;11.40;99.90;;;;;;6317986;22;20041;-80
2021/10/13 10:52:11;;;;;;;0.00;0.00;;;11.50;99.90;;;;;;6318445;22;20089;-79
2021/10/13 10:54:37;;;;;;;0.00;0.00;;;11.50;99.90;;;;;;6292571;22;20008;-79
2021/10/13 10:57:30;;;;;;;0.00;0.00;;;11.50;99.90;;;;;;6293019;22;20094;-79
2021/10/13 10:59:57;;;;;;;0.00;0.00;;;11.50;99.90;;;;;;6268016;22;20073;-79
2021/10/13 11:02:25;;;;;;;0.00;0.00;;;11.60;99.90;;;;;;6292642;22;20019;-80
2021/10/13 11:05:08;;;;;;;0.10;0.10;;;11.60;99.90;;;;;;6292877;22;20463;-80
2021/10/13 11:07:39;;;;;;;0.00;0.00;;;11.80;99.90;;;;;;6266999;22;20015;-80
2021/10/13 11:10:12;;;;;;;0.00;0.00;;;11.90;99.90;;;;;;6267079;22;20015;-80
2021/10/13 11:12:47;;;;;;;0.00;0.00;;;12.00;99.90;;;;;;6292337;22;20019;-80
2021/10/13 11:15:14;;;;;;;0.00;0.00;;;12.00;99.90;;;;;;6292431;22;20015;-80
2021/10/13 11:17:42;;;;;;;0.00;0.00;;;12.10;99.90;;;;;;6292117;22;20106;-80
2021/10/13 11:20:11;;;;;;;0.00;0.00;;;12.20;99.90;;;;;;6292689;22;20011;-80
2021/10/13 11:22:38;;;;;;;0.00;0.00;;;12.30;99.90;;;;;;6267493;22;20011;-80
2021/10/13 11:25:17;;;;;;;0.00;0.00;;;12.40;99.90;;;;;;6267426;22;20026;-80
2021/10/13 11:28:00;;;;;;;0.00;0.00;;;12.50;99.90;;;;;;6292604;22;20321;-80
2021/10/13 11:30:29;;;;;;;0.00;0.00;;;12.50;99.90;;;;;;6267413;22;20444;-80
2021/10/13 11:32:56;;;;;;;0.00;0.00;;;12.60;99.90;;;;;;6292729;22;20008;-80
2021/10/13 11:35:23;;;;;;;0.00;0.00;;;12.60;99.90;;;;;;6267432;22;20007;-80
2021/10/13 11:37:54;;;;;;;0.00;0.00;;;12.70;99.90;;;;;;6266458;22;20039;-80
2021/10/13 11:40:21;;;;;;;0.00;0.00;;;12.80;99.90;;;;;;6267434;22;20074;-80
2021/10/13 11:42:49;;;;;;;0.00;0.00;;;12.90;99.90;;;;;;6266727;22;20011;-80
2021/10/13 11:45:21;;;;;;;0.00;0.00;;;12.90;99.90;;;;;;6317946;22;20016;-80
2021/10/13 11:47:48;;;;;;;0.00;0.00;;;13.00;99.90;;;;;;6291842;22;20090;-80
2021/10/13 11:50:19;;;;;;;0.00;0.00;;;13.00;99.90;;;;;;6292078;22;20105;-80
2021/10/13 11:52:54;;;;;;;0.00;0.00;;;13.00;99.90;;;;;;6292204;22;20462;-80
2021/10/13 11:55:26;;;;;;;0.00;0.00;;;12.80;99.90;;;;;;6292251;22;20008;-80
2021/10/13 11:57:55;;;;;;;0.00;0.00;;;12.60;99.90;;;;;;6292065;22;20015;-80
2021/10/13 12:00:22;;;;;;;0.00;0.00;;;12.50;99.90;;;;;;6292570;22;20019;-80
2021/10/13 12:03:07;;;;;;;0.00;0.00;;;12.50;99.90;;;;;;6317257;22;20466;-80
2021/10/13 12:05:37;;;;;;;0.00;0.00;;;12.50;99.90;;;;;;6291944;22;20054;-80
2021/10/13 12:08:14;;;;;;;0.00;0.00;;;12.60;99.90;;;;;;6292633;22;20016;-80
2021/10/13 12:11:11;;;;;;;0.00;0.00;;;12.60;99.90;;;;;;6317296;22;20016;-80
2021/10/13 12:13:46;;;;;;;0.08;0.08;;;12.70;99.90;;;;;;6272796;22;20070;-80
2021/10/13 12:16:20;;;;;;;0.00;0.00;;;12.80;99.90;;;;;;6292174;22;20024;-80
2021/10/13 12:18:47;;;;;;;0.00;0.00;;;12.80;99.90;;;;;;6291761;22;20145;-80
2021/10/13 12:21:20;;;;;;;0.00;0.00;;;12.80;99.90;;;;;;6266910;22;20014;-81
2021/10/13 12:23:52;;;;;;;0.00;0.00;;;12.90;99.90;;;;;;6266652;22;20030;-80
2021/10/13 12:26:28;;;;;;;0.00;0.00;;;12.80;99.90;;;;;;6292201;22;20019;-82
2021/10/13 12:36:55;;;;;;;0.00;0.00;;;13.10;99.90;;;;;;6317023;22;20037;-80
2021/10/13 12:39:24;;;;;;;0.10;0.10;;;13.30;99.90;;;;;;6291853;22;20015;-80
2021/10/13 12:41:51;;;;;;;0.00;0.00;;;13.30;99.90;;;;;;6292393;22;20018;-80
2021/10/13 12:44:18;;;;;;;0.00;0.00;;;13.30;99.90;;;;;;6292283;22;20095;-81
2021/10/13 12:46:56;;;;;;;0.00;0.00;;;13.30;99.90;;;;;;6292423;22;20047;-80
2021/10/13 12:49:25;;;;;;;0.00;0.00;;;13.30;99.90;;;;;;6291960;22;20086;-80
2021/10/13 12:51:55;;;;;;;0.00;0.00;;;13.20;99.90;;;;;;6318229;22;20012;-81
2021/10/13 12:54:22;;;;;;;0.00;0.00;;;13.30;99.90;;;;;;6292150;22;20018;-81
2021/10/13 12:56:48;;;;;;;0.00;0.00;;;13.30;99.90;;;;;;6266719;22;20043;-81
2021/10/13 12:59:16;;;;;;;0.00;0.00;;;13.30;99.90;;;;;;6266781;22;20356;-81
2021/10/13 13:01:42;;;;;;;0.00;0.00;;;13.30;99.90;;;;;;6292209;22;20011;-81
2021/10/13 13:04:09;;;;;;;0.00;0.00;;;13.30;99.90;;;;;;6269175;22;20023;-81
2021/10/13 13:06:36;;;;;;;0.00;0.00;;;13.20;99.90;;;;;;6294590;22;20008;-81
2021/10/13 13:09:03;;;;;;;0.00;0.00;;;13.20;99.90;;;;;;6269670;22;20015;-81
2021/10/13 13:11:29;;;;;;;0.00;0.00;;;13.30;99.90;;;;;;6294358;22;20066;-81
2021/10/13 13:13:56;;;;;;;0.00;0.00;;;13.30;99.90;;;;;;6268908;22;20045;-81